Time;durP1;ratioP1;P1;durP2;ratioP2;P2;SDS_P1;SDS_P2;PMS_P1;PMS_P2;Temp;Humidity;BMP_temperature;BMP_pressure;BME280_temperature;BME280_humidity;BME280_pressure;Samples;Min_cycle;Max_cycle;Signal;HPM_P1;HPM_P2
2023/07/23 00:00:17;;;;;;;9.95;5.10;;;15.20;99.90;;;;;;5032146;28;20052;-74
2023/07/23 00:02:43;;;;;;;7.53;5.25;;;15.10;99.90;;;;;;5031921;28;20410;-74
2023/07/23 00:05:09;;;;;;;9.70;5.70;;;15.10;99.90;;;;;;5032167;28;20090;-74
2023/07/23 00:07:34;;;;;;;10.35;5.85;;;15.10;99.90;;;;;;5031863;28;20555;-73
2023/07/23 00:10:00;;;;;;;11.48;5.78;;;15.00;99.90;;;;;;5031768;28;20071;-73
2023/07/23 00:12:25;;;;;;;10.63;6.00;;;15.00;99.90;;;;;;5031858;28;20592;-73
2023/07/23 00:14:51;;;;;;;7.82;5.53;;;15.00;99.90;;;;;;5032074;28;20045;-73
2023/07/23 00:17:16;;;;;;;10.90;6.28;;;15.00;99.90;;;;;;5031719;28;20498;-73
2023/07/23 00:19:42;;;;;;;10.63;6.55;;;14.90;99.90;;;;;;5031706;28;20045;-73
2023/07/23 00:22:08;;;;;;;8.70;5.85;;;14.90;99.90;;;;;;5015322;28;20037;-73
2023/07/23 00:24:33;;;;;;;12.88;6.25;;;14.90;99.90;;;;;;5031735;28;20037;-73
2023/07/23 00:26:59;;;;;;;9.02;6.22;;;14.90;99.90;;;;;;5031743;28;20034;-73
2023/07/23 00:29:24;;;;;;;10.52;6.03;;;14.80;99.90;;;;;;5031935;28;20095;-73
2023/07/23 00:31:50;;;;;;;10.32;5.80;;;14.80;99.90;;;;;;5031918;28;20038;-73
2023/07/23 00:34:15;;;;;;;9.68;6.38;;;14.80;99.90;;;;;;5031648;28;20502;-73
2023/07/23 00:36:41;;;;;;;10.95;6.22;;;14.80;99.90;;;;;;5031885;28;20176;-73
2023/07/23 00:39:07;;;;;;;8.88;5.43;;;14.70;99.90;;;;;;5034312;28;20045;-73
2023/07/23 00:41:32;;;;;;;11.00;6.22;;;14.70;99.90;;;;;;5035574;28;20410;-73
2023/07/23 00:43:58;;;;;;;11.18;7.25;;;14.70;99.90;;;;;;5035464;28;20041;-73
2023/07/23 00:46:24;;;;;;;10.15;6.60;;;14.70;99.90;;;;;;5035451;28;20048;-73
2023/07/23 00:48:50;;;;;;;9.68;6.50;;;14.60;99.90;;;;;;5035424;28;20029;-73
2023/07/23 00:51:16;;;;;;;9.13;6.35;;;14.70;99.90;;;;;;5018950;28;20037;-73
2023/07/23 00:53:42;;;;;;;11.63;6.60;;;14.70;99.90;;;;;;5019082;28;20042;-73
2023/07/23 00:56:08;;;;;;;11.80;6.38;;;14.70;99.90;;;;;;5035281;28;20534;-73
2023/07/23 00:58:35;;;;;;;9.75;6.53;;;14.60;99.90;;;;;;5035506;28;20092;-73
2023/07/23 01:01:00;;;;;;;11.02;6.70;;;14.60;99.90;;;;;;5035269;28;20518;-73
2023/07/23 01:03:26;;;;;;;14.25;6.43;;;14.70;99.90;;;;;;5035288;28;20050;-73
2023/07/23 01:05:58;;;;;;;9.50;6.00;;;14.70;99.90;;;;;;5035141;28;20493;-73
2023/07/23 01:08:27;;;;;;;11.02;6.65;;;14.60;99.90;;;;;;5035124;28;20041;-73
2023/07/23 01:10:53;;;;;;;10.77;6.65;;;14.60;99.90;;;;;;5035253;28;20083;-73
2023/07/23 01:13:20;;;;;;;10.50;6.78;;;14.70;99.90;;;;;;5035269;28;20068;-73
2023/07/23 01:15:46;;;;;;;10.90;6.82;;;14.60;99.90;;;;;;5035171;28;20051;-73
2023/07/23 01:18:12;;;;;;;12.85;7.13;;;14.60;99.90;;;;;;5035145;28;20161;-73
2023/07/23 01:20:38;;;;;;;11.30;7.18;;;14.60;99.90;;;;;;5018550;28;20046;-73
2023/07/23 01:23:04;;;;;;;15.82;6.85;;;14.50;99.90;;;;;;5034790;28;20426;-73
2023/07/23 01:25:29;;;;;;;12.70;6.95;;;14.60;99.90;;;;;;5035061;28;20107;-73
2023/07/23 01:27:55;;;;;;;12.70;7.10;;;14.50;99.90;;;;;;5035029;28;20391;-73
2023/07/23 01:30:20;;;;;;;11.20;6.22;;;14.60;99.90;;;;;;5034616;28;20045;-73
2023/07/23 01:32:47;;;;;;;13.52;7.20;;;14.60;99.90;;;;;;5034694;28;20041;-72
2023/07/23 01:35:15;;;;;;;9.13;6.28;;;14.60;99.90;;;;;;5034677;28;20045;-72
2023/07/23 01:37:43;;;;;;;9.40;6.22;;;14.60;99.90;;;;;;5034595;28;20038;-73
2023/07/23 01:40:09;;;;;;;11.00;7.07;;;14.60;99.90;;;;;;5034482;28;20045;-73
2023/07/23 01:42:35;;;;;;;11.60;6.78;;;14.60;99.90;;;;;;5034659;28;20124;-73
2023/07/23 01:45:05;;;;;;;8.95;5.88;;;14.60;99.90;;;;;;5017960;28;20049;-73
2023/07/23 01:47:30;;;;;;;9.80;6.25;;;14.60;99.90;;;;;;5034310;28;20037;-73
2023/07/23 01:49:56;;;;;;;11.75;6.85;;;14.60;99.90;;;;;;5016995;28;20045;-73
2023/07/23 01:52:22;;;;;;;10.65;6.28;;;14.50;99.90;;;;;;5034248;28;20075;-73
2023/07/23 01:54:47;;;;;;;9.48;6.20;;;14.50;99.90;;;;;;5034502;28;20037;-73
2023/07/23 01:57:13;;;;;;;8.90;6.20;;;14.50;99.90;;;;;;5034464;28;20045;-73
2023/07/23 01:59:39;;;;;;;11.02;6.07;;;14.60;99.90;;;;;;5034081;28;20514;-73
2023/07/23 02:02:09;;;;;;;10.55;6.22;;;14.50;99.90;;;;;;5034112;28;20041;-73
2023/07/23 02:04:34;;;;;;;8.68;5.75;;;14.50;99.90;;;;;;5035206;28;20045;-73
2023/07/23 02:07:00;;;;;;;8.57;5.70;;;14.60;99.90;;;;;;5033986;28;20521;-73
2023/07/23 02:09:26;;;;;;;9.15;6.25;;;14.60;99.90;;;;;;5017477;28;20040;-72
2023/07/23 02:11:51;;;;;;;12.05;6.60;;;14.60;99.90;;;;;;5017466;28;20041;-72
2023/07/23 02:14:17;;;;;;;10.68;6.75;;;14.70;99.90;;;;;;5033822;28;20040;-73
2023/07/23 02:16:42;;;;;;;9.70;6.70;;;14.70;99.90;;;;;;5033802;28;20041;-73
2023/07/23 02:19:08;;;;;;;9.82;6.68;;;14.60;99.90;;;;;;5033678;28;20045;-73
2023/07/23 02:21:33;;;;;;;9.65;6.63;;;14.70;99.90;;;;;;5033969;28;20045;-73
2023/07/23 02:23:59;;;;;;;9.75;6.35;;;14.80;99.90;;;;;;5033599;28;20410;-73
2023/07/23 02:26:25;;;;;;;11.70;6.63;;;14.70;99.90;;;;;;5033659;28;20124;-73
2023/07/23 02:28:50;;;;;;;11.02;6.80;;;14.80;99.90;;;;;;5033486;28;20033;-73
2023/07/23 02:31:16;;;;;;;12.68;7.03;;;14.80;99.90;;;;;;5017313;28;20037;-73
2023/07/23 02:33:41;;;;;;;10.68;7.00;;;14.80;99.90;;;;;;5017238;28;20041;-73
2023/07/23 02:36:07;;;;;;;10.30;7.03;;;14.90;99.90;;;;;;5034255;28;20124;-73
2023/07/23 02:38:32;;;;;;;12.35;7.63;;;14.80;99.90;;;;;;5033678;28;20038;-73
2023/07/23 02:40:59;;;;;;;11.25;7.25;;;14.90;99.90;;;;;;5033292;28;20468;-73
2023/07/23 02:43:25;;;;;;;11.02;7.40;;;14.90;99.90;;;;;;5033363;28;20053;-73
2023/07/23 02:45:51;;;;;;;12.07;7.25;;;14.80;99.90;;;;;;5033228;28;20512;-73
2023/07/23 02:48:16;;;;;;;12.00;7.90;;;14.90;99.90;;;;;;5033441;28;20042;-73
2023/07/23 02:50:42;;;;;;;11.00;7.68;;;14.90;99.90;;;;;;5032965;28;20510;-73
2023/07/23 02:53:08;;;;;;;12.88;7.90;;;14.90;99.90;;;;;;5033380;28;20094;-73
2023/07/23 02:55:33;;;;;;;12.85;7.75;;;15.00;99.90;;;;;;5033043;28;20494;-73
2023/07/23 02:58:00;;;;;;;10.95;7.78;;;14.90;99.90;;;;;;5016565;28;20044;-73
2023/07/23 03:00:30;;;;;;;11.55;7.80;;;15.00;99.90;;;;;;5032935;28;20037;-73
2023/07/23 03:02:56;;;;;;;11.63;7.60;;;14.90;99.90;;;;;;5031814;28;20537;-73
2023/07/23 03:05:24;;;;;;;11.10;7.40;;;14.90;99.90;;;;;;5032939;28;20075;-73
2023/07/23 03:07:51;;;;;;;12.95;7.90;;;15.00;99.90;;;;;;5016387;28;20433;-73
2023/07/23 03:10:17;;;;;;;10.32;7.30;;;14.90;99.90;;;;;;5033034;28;20029;-73
2023/07/23 03:12:43;;;;;;;10.18;7.50;;;14.90;99.90;;;;;;5016265;28;20037;-73
2023/07/23 03:15:09;;;;;;;11.60;7.28;;;14.90;99.90;;;;;;5032707;28;20049;-73
2023/07/23 03:17:34;;;;;;;12.40;8.45;;;14.90;99.90;;;;;;5032868;28;20044;-73
2023/07/23 03:20:00;;;;;;;12.15;7.68;;;15.00;99.90;;;;;;5032521;28;20406;-73
2023/07/23 03:22:25;;;;;;;11.15;7.10;;;15.00;99.90;;;;;;5032762;28;20056;-74
2023/07/23 03:24:51;;;;;;;10.63;7.30;;;15.00;99.90;;;;;;5032506;28;20406;-74
2023/07/23 03:27:17;;;;;;;10.73;7.07;;;15.00;99.90;;;;;;5032453;28;20048;-73
2023/07/23 03:29:42;;;;;;;12.63;7.10;;;15.00;99.90;;;;;;5032391;28;20076;-73
2023/07/23 03:32:08;;;;;;;12.73;7.43;;;15.00;99.90;;;;;;5016238;28;20041;-73
2023/07/23 03:34:33;;;;;;;12.75;7.70;;;15.00;99.90;;;;;;5032392;28;20478;-73
2023/07/23 03:36:59;;;;;;;10.77;7.25;;;15.00;99.90;;;;;;5032287;28;20052;-73
2023/07/23 03:39:25;;;;;;;14.27;7.70;;;15.00;99.90;;;;;;5032209;28;20128;-73
2023/07/23 03:41:51;;;;;;;11.20;7.38;;;14.90;99.90;;;;;;5032271;28;20037;-73
2023/07/23 03:44:16;;;;;;;13.07;7.93;;;15.00;99.90;;;;;;5015668;28;20045;-73
2023/07/23 03:46:44;;;;;;;12.00;8.00;;;15.00;99.90;;;;;;5032478;28;20033;-73
2023/07/23 03:49:10;;;;;;;10.63;6.93;;;15.00;99.90;;;;;;5031958;28;20041;-73
2023/07/23 03:51:35;;;;;;;12.68;7.90;;;14.90;99.90;;;;;;5032077;28;20048;-73
2023/07/23 03:54:01;;;;;;;12.75;7.05;;;14.90;99.90;;;;;;5032055;28;20037;-73
2023/07/23 03:56:27;;;;;;;11.23;8.15;;;15.00;99.90;;;;;;5032284;28;20053;-73
2023/07/23 03:58:52;;;;;;;10.82;7.43;;;15.00;99.90;;;;;;5031895;28;20128;-73
2023/07/23 04:01:18;;;;;;;10.70;7.72;;;15.00;99.90;;;;;;5032224;28;20042;-73
2023/07/23 04:03:43;;;;;;;15.18;7.88;;;15.00;99.90;;;;;;5015589;28;20077;-73
2023/07/23 04:06:09;;;;;;;11.75;7.60;;;15.00;99.90;;;;;;5032199;28;20391;-73
2023/07/23 04:08:34;;;;;;;9.90;7.38;;;15.00;99.90;;;;;;5031824;28;20383;-73
2023/07/23 04:11:00;;;;;;;14.95;8.27;;;15.00;99.90;;;;;;5015663;28;20041;-73
2023/07/23 04:13:26;;;;;;;11.73;7.72;;;15.00;99.90;;;;;;5031457;28;20502;-73
2023/07/23 04:15:51;;;;;;;11.27;8.18;;;15.00;99.90;;;;;;5031799;28;20064;-73
2023/07/23 04:18:18;;;;;;;13.23;8.20;;;15.00;99.90;;;;;;5031783;28;20045;-73
2023/07/23 04:20:44;;;;;;;12.50;8.25;;;15.00;99.90;;;;;;5015259;28;20074;-73
2023/07/23 04:23:10;;;;;;;11.35;8.25;;;15.10;99.90;;;;;;5031660;28;20127;-73
2023/07/23 04:25:35;;;;;;;10.02;7.53;;;15.00;99.90;;;;;;5031675;28;20041;-73
2023/07/23 04:28:01;;;;;;;9.70;7.50;;;15.00;99.90;;;;;;5031842;28;20037;-73
2023/07/23 04:30:28;;;;;;;11.68;7.43;;;15.00;99.90;;;;;;5031617;28;20033;-73
2023/07/23 04:32:53;;;;;;;12.23;7.60;;;15.10;99.90;;;;;;5031702;28;20503;-73
2023/07/23 04:35:21;;;;;;;12.27;7.47;;;15.10;99.90;;;;;;5031723;28;20037;-73
2023/07/23 04:37:46;;;;;;;10.85;7.90;;;15.00;99.90;;;;;;5031618;28;20095;-73
2023/07/23 04:40:12;;;;;;;13.18;8.15;;;15.10;99.90;;;;;;5031842;28;20134;-73
2023/07/23 04:42:38;;;;;;;13.27;8.35;;;15.10;99.90;;;;;;5031513;28;20498;-73
2023/07/23 04:45:04;;;;;;;13.05;8.57;;;15.10;99.90;;;;;;5015176;28;20033;-73
2023/07/23 04:47:29;;;;;;;11.63;7.95;;;15.10;99.90;;;;;;5031583;28;20038;-73
2023/07/23 04:49:56;;;;;;;11.15;8.30;;;15.10;99.90;;;;;;5031416;28;20120;-73
2023/07/23 04:52:22;;;;;;;12.23;8.30;;;15.10;99.90;;;;;;5031590;28;20117;-73
2023/07/23 04:54:47;;;;;;;12.65;7.80;;;15.10;99.90;;;;;;5031870;28;20124;-73
2023/07/23 04:57:13;;;;;;;14.88;8.18;;;15.20;99.90;;;;;;5031585;28;20498;-73
2023/07/23 04:59:39;;;;;;;15.90;8.70;;;15.10;99.90;;;;;;5015187;28;20113;-73
2023/07/23 05:02:04;;;;;;;12.68;8.52;;;15.10;99.90;;;;;;5031501;28;20436;-73
2023/07/23 05:04:30;;;;;;;12.52;8.52;;;15.10;99.90;;;;;;5014939;28;20044;-73
2023/07/23 05:06:55;;;;;;;12.60;8.25;;;15.10;99.90;;;;;;5031392;28;20103;-73
2023/07/23 05:09:21;;;;;;;12.30;8.82;;;15.20;99.90;;;;;;5031587;28;20080;-73
2023/07/23 05:11:48;;;;;;;12.68;8.73;;;15.20;99.90;;;;;;5031354;28;20486;-73
2023/07/23 05:14:15;;;;;;;14.35;8.65;;;15.20;99.90;;;;;;5031331;28;20414;-73
2023/07/23 05:16:40;;;;;;;15.48;8.20;;;15.10;99.90;;;;;;5031278;28;20117;-73
2023/07/23 05:19:06;;;;;;;15.95;8.60;;;15.20;99.90;;;;;;5031211;28;20125;-73
2023/07/23 05:21:34;;;;;;;11.55;8.00;;;15.10;99.90;;;;;;5031240;28;20148;-73
2023/07/23 05:24:04;;;;;;;12.43;8.73;;;15.20;99.90;;;;;;5031162;28;20132;-73
2023/07/23 05:26:29;;;;;;;12.95;9.40;;;15.20;99.90;;;;;;5017472;28;20532;-73
2023/07/23 05:28:55;;;;;;;12.32;8.50;;;15.20;99.90;;;;;;5034675;28;20037;-73
2023/07/23 05:31:20;;;;;;;12.88;8.63;;;15.20;99.90;;;;;;5034948;28;20131;-73
2023/07/23 05:33:46;;;;;;;12.68;8.30;;;15.20;99.90;;;;;;5034967;28;20037;-73
2023/07/23 05:36:11;;;;;;;11.00;8.60;;;15.30;99.90;;;;;;5034680;28;20505;-73
2023/07/23 05:38:37;;;;;;;11.50;8.88;;;15.30;99.90;;;;;;5034514;28;20045;-73
2023/07/23 05:41:03;;;;;;;12.60;8.80;;;15.30;99.90;;;;;;5034814;28;20066;-73
2023/07/23 05:43:29;;;;;;;15.65;8.73;;;15.30;99.90;;;;;;5034411;28;20091;-73
2023/07/23 05:45:56;;;;;;;13.45;8.50;;;15.40;99.90;;;;;;5034437;28;20038;-73
2023/07/23 05:48:21;;;;;;;12.98;7.90;;;15.40;99.90;;;;;;5034410;28;20037;-73
2023/07/23 05:50:47;;;;;;;13.15;8.75;;;15.40;99.90;;;;;;5034211;28;20095;-73
2023/07/23 05:53:12;;;;;;;15.32;8.55;;;15.40;99.90;;;;;;5018182;28;20038;-73
2023/07/23 05:55:38;;;;;;;16.23;8.70;;;15.40;99.90;;;;;;5018108;28;20084;-73
2023/07/23 05:58:04;;;;;;;11.00;8.70;;;15.50;99.90;;;;;;5034250;28;20445;-73
2023/07/23 06:00:29;;;;;;;12.93;8.68;;;15.50;99.90;;;;;;5034409;28;20041;-73
2023/07/23 06:02:55;;;;;;;13.15;8.57;;;15.60;99.90;;;;;;5034105;28;20516;-73
2023/07/23 06:05:20;;;;;;;13.70;9.23;;;15.50;99.90;;;;;;5017571;28;20087;-73
2023/07/23 06:07:46;;;;;;;12.93;8.48;;;15.60;99.90;;;;;;5017555;28;20037;-73
2023/07/23 06:10:12;;;;;;;12.60;8.15;;;15.60;99.90;;;;;;5033958;28;20065;-73
2023/07/23 06:12:37;;;;;;;13.70;8.45;;;15.60;99.90;;;;;;5034013;28;20060;-73
2023/07/23 06:15:03;;;;;;;11.75;8.57;;;15.70;99.90;;;;;;5033913;28;20046;-73
2023/07/23 06:17:29;;;;;;;15.07;9.52;;;15.70;99.90;;;;;;5033866;28;20041;-73
2023/07/23 06:19:54;;;;;;;11.68;8.40;;;15.70;99.90;;;;;;5033766;28;20048;-73
2023/07/23 06:22:20;;;;;;;12.75;8.55;;;15.60;99.90;;;;;;5033801;28;20068;-73
2023/07/23 06:24:46;;;;;;;13.75;8.90;;;15.70;99.90;;;;;;5033676;28;20045;-73
2023/07/23 06:27:11;;;;;;;11.45;8.85;;;15.70;99.90;;;;;;5033712;28;20037;-73
2023/07/23 06:29:37;;;;;;;10.13;8.50;;;15.80;99.90;;;;;;5017094;28;20087;-73
2023/07/23 06:32:03;;;;;;;12.07;8.68;;;15.80;99.90;;;;;;5033600;28;20060;-73
2023/07/23 06:34:28;;;;;;;10.48;8.52;;;15.80;99.90;;;;;;5034087;28;20067;-73
2023/07/23 06:36:54;;;;;;;15.40;9.70;;;15.80;99.90;;;;;;5033304;28;20485;-73
2023/07/23 06:39:20;;;;;;;19.40;9.07;;;15.80;99.90;;;;;;5033431;28;20037;-73
2023/07/23 06:41:46;;;;;;;14.98;9.23;;;15.90;99.90;;;;;;5033418;28;20056;-73
2023/07/23 06:44:12;;;;;;;10.57;8.40;;;15.90;99.90;;;;;;5033303;28;20045;-73
2023/07/23 06:46:37;;;;;;;11.98;9.05;;;15.90;99.90;;;;;;5016870;28;20048;-73
2023/07/23 06:49:03;;;;;;;12.82;9.23;;;15.90;99.90;;;;;;5033142;28;20034;-73
2023/07/23 06:51:28;;;;;;;13.95;9.05;;;15.80;99.90;;;;;;5033536;28;20037;-73
2023/07/23 06:53:54;;;;;;;15.23;9.55;;;15.80;99.90;;;;;;5033204;28;20443;-73
2023/07/23 06:56:20;;;;;;;13.20;9.05;;;15.80;99.90;;;;;;5033130;28;20094;-73
2023/07/23 06:58:45;;;;;;;12.07;9.05;;;15.80;99.90;;;;;;5033291;28;20049;-73
2023/07/23 07:01:11;;;;;;;13.20;8.98;;;15.90;99.90;;;;;;5033268;28;20509;-73
2023/07/23 07:03:37;;;;;;;16.38;9.13;;;15.80;99.90;;;;;;5033101;28;20413;-73
2023/07/23 07:06:04;;;;;;;17.58;9.20;;;15.80;99.90;;;;;;5033228;28;20049;-73
2023/07/23 07:08:29;;;;;;;16.98;10.00;;;15.90;99.90;;;;;;5016428;28;20033;-73
2023/07/23 07:11:00;;;;;;;15.30;9.77;;;15.90;99.90;;;;;;5032762;28;20043;-73
2023/07/23 07:13:27;;;;;;;15.75;9.63;;;15.90;99.90;;;;;;5032804;28;20535;-73
2023/07/23 07:15:53;;;;;;;15.25;9.05;;;15.80;99.90;;;;;;5032776;28;20501;-73
2023/07/23 07:18:18;;;;;;;14.45;9.65;;;15.80;99.90;;;;;;5033832;28;20095;-73
2023/07/23 07:20:44;;;;;;;15.25;9.30;;;15.80;99.90;;;;;;5032849;28;20133;-73
2023/07/23 07:23:09;;;;;;;15.75;9.80;;;15.80;99.90;;;;;;5032587;28;20410;-73
2023/07/23 07:25:36;;;;;;;18.95;9.98;;;15.90;99.90;;;;;;5032849;28;20073;-73
2023/07/23 07:28:01;;;;;;;13.30;9.18;;;15.90;99.90;;;;;;5032860;28;20033;-76
2023/07/23 07:30:27;;;;;;;14.90;8.80;;;16.00;99.90;;;;;;5015899;28;20091;-76
2023/07/23 07:32:53;;;;;;;17.10;9.43;;;16.00;99.90;;;;;;5033134;28;20044;-76
2023/07/23 07:35:19;;;;;;;15.75;9.48;;;16.10;99.90;;;;;;5032413;28;20107;-76
2023/07/23 07:37:45;;;;;;;15.38;9.35;;;16.10;99.90;;;;;;5016000;28;20406;-76
2023/07/23 07:40:13;;;;;;;16.30;9.40;;;16.00;99.90;;;;;;5033385;28;20056;-76
2023/07/23 07:42:38;;;;;;;14.80;9.50;;;16.00;99.90;;;;;;5032237;28;20037;-76
2023/07/23 07:45:04;;;;;;;13.50;9.30;;;16.00;99.90;;;;;;5015835;28;20044;-76
2023/07/23 07:47:30;;;;;;;13.98;9.25;;;16.00;99.90;;;;;;5031800;28;20084;-76
2023/07/23 07:49:55;;;;;;;16.35;9.05;;;15.90;99.90;;;;;;5032130;28;20041;-76
2023/07/23 07:52:21;;;;;;;18.95;9.75;;;15.90;99.90;;;;;;5015732;28;20502;-76
2023/07/23 07:54:47;;;;;;;17.30;10.05;;;15.90;99.90;;;;;;5015978;28;20041;-76
2023/07/23 07:57:13;;;;;;;16.92;9.75;;;15.80;99.90;;;;;;5015702;28;20514;-76
2023/07/23 07:59:38;;;;;;;15.18;10.10;;;15.90;99.90;;;;;;5015571;28;20041;-76
2023/07/23 08:02:04;;;;;;;15.02;9.38;;;15.90;99.90;;;;;;5032267;28;20452;-76
2023/07/23 08:04:30;;;;;;;15.25;10.18;;;15.80;99.90;;;;;;5032172;28;20453;-76
2023/07/23 08:06:57;;;;;;;14.30;9.77;;;15.80;99.90;;;;;;5015569;28;20041;-76
2023/07/23 08:09:23;;;;;;;16.52;9.98;;;15.80;99.90;;;;;;5032101;28;20073;-76
2023/07/23 08:11:50;;;;;;;15.73;9.50;;;15.80;99.90;;;;;;5031931;28;20048;-77
2023/07/23 08:14:18;;;;;;;16.35;9.63;;;15.80;99.90;;;;;;5031864;28;20045;-77
2023/07/23 08:16:44;;;;;;;22.75;11.07;;;15.80;99.90;;;;;;5031917;28;20037;-76
2023/07/23 08:19:10;;;;;;;16.23;9.70;;;15.80;99.90;;;;;;5031771;28;20047;-76
2023/07/23 08:21:35;;;;;;;16.23;10.27;;;15.80;99.90;;;;;;5015461;28;20049;-76
2023/07/23 08:24:01;;;;;;;14.68;9.48;;;15.90;99.90;;;;;;5031818;28;20044;-76
2023/07/23 08:26:29;;;;;;;17.15;9.82;;;15.90;99.90;;;;;;5031800;28;20510;-76
2023/07/23 08:29:00;;;;;;;14.85;9.38;;;15.90;99.90;;;;;;5031674;28;20043;-76
2023/07/23 08:31:26;;;;;;;12.65;8.60;;;15.90;99.90;;;;;;5031779;28;20042;-76
2023/07/23 08:33:52;;;;;;;13.70;7.90;;;15.80;99.90;;;;;;5031774;28;20037;-76
2023/07/23 08:36:18;;;;;;;12.55;8.60;;;15.80;99.90;;;;;;5031970;28;20064;-76
2023/07/23 08:38:44;;;;;;;14.55;8.02;;;15.90;99.90;;;;;;5031612;28;20446;-76
2023/07/23 08:41:37;;;;;;;14.60;8.48;;;15.90;99.90;;;;;;5031632;28;20124;-76
2023/07/23 08:44:42;;;;;;;10.48;7.95;;;15.90;99.90;;;;;;4986034;28;20054;-76
2023/07/23 08:47:13;;;;;;;13.02;7.68;;;15.90;99.90;;;;;;5031883;28;20037;-76
2023/07/23 08:49:43;;;;;;;12.40;8.13;;;15.90;99.90;;;;;;5031387;28;20044;-76
2023/07/23 08:52:12;;;;;;;14.00;8.32;;;15.90;99.90;;;;;;5015155;28;20049;-76
2023/07/23 08:54:39;;;;;;;10.68;7.97;;;15.90;99.90;;;;;;5031794;28;20049;-76
2023/07/23 08:57:06;;;;;;;11.80;7.95;;;15.80;99.90;;;;;;5031477;28;20077;-76
2023/07/23 08:59:33;;;;;;;14.15;7.93;;;15.80;99.90;;;;;;5033072;28;20486;-76
2023/07/23 09:02:01;;;;;;;13.50;8.63;;;15.90;99.90;;;;;;5035290;28;20126;-76
2023/07/23 09:04:27;;;;;;;13.07;8.57;;;15.90;99.90;;;;;;5018813;28;20054;-76
2023/07/23 09:06:57;;;;;;;12.15;7.88;;;15.80;99.90;;;;;;5035233;28;20453;-76
2023/07/23 09:09:23;;;;;;;11.40;8.25;;;15.90;99.90;;;;;;5018687;28;20040;-77
2023/07/23 09:11:48;;;;;;;11.88;7.22;;;15.80;99.90;;;;;;5018690;28;20037;-77
2023/07/23 09:14:15;;;;;;;13.25;7.85;;;15.80;99.90;;;;;;5035119;28;20128;-77
2023/07/23 09:16:47;;;;;;;11.15;8.02;;;15.90;99.90;;;;;;5034991;28;20044;-77
2023/07/23 09:19:20;;;;;;;14.10;8.25;;;16.00;99.90;;;;;;5034956;28;20128;-77
2023/07/23 09:21:46;;;;;;;12.18;8.05;;;15.90;99.90;;;;;;5034944;28;20095;-77
2023/07/23 09:24:14;;;;;;;11.95;7.95;;;15.90;99.90;;;;;;5034784;28;20045;-77
2023/07/23 09:26:40;;;;;;;11.40;7.95;;;16.00;99.90;;;;;;5034840;28;20046;-77
2023/07/23 09:29:11;;;;;;;15.85;7.80;;;16.10;99.90;;;;;;5034973;28;20398;-77
2023/07/23 09:31:41;;;;;;;10.68;6.80;;;16.00;99.90;;;;;;5035060;28;20490;-77
2023/07/23 09:34:07;;;;;;;10.23;7.47;;;16.00;99.90;;;;;;5035880;28;20088;-77
2023/07/23 09:36:33;;;;;;;11.10;7.40;;;16.00;99.90;;;;;;5034994;28;20111;-77
2023/07/23 09:39:04;;;;;;;9.07;7.00;;;16.00;99.90;;;;;;5018330;28;20537;-77
2023/07/23 09:41:41;;;;;;;11.98;7.32;;;16.10;99.90;;;;;;5018130;28;20037;-77
2023/07/23 09:44:10;;;;;;;11.70;7.00;;;16.00;99.90;;;;;;5034652;28;20038;-77
2023/07/23 09:46:38;;;;;;;10.30;6.90;;;16.00;99.90;;;;;;5034488;28;20037;-77
2023/07/23 09:49:04;;;;;;;11.13;7.00;;;16.10;99.90;;;;;;5017759;28;20044;-77
2023/07/23 09:51:33;;;;;;;11.77;6.85;;;16.10;99.90;;;;;;5017932;28;20033;-77
2023/07/23 09:54:03;;;;;;;8.35;6.07;;;16.10;99.90;;;;;;5034607;28;20060;-77
2023/07/23 09:56:31;;;;;;;9.85;6.43;;;16.00;99.90;;;;;;5034304;28;20494;-77
2023/07/23 09:58:58;;;;;;;10.23;6.40;;;16.00;99.90;;;;;;5034176;28;20092;-77
2023/07/23 10:01:25;;;;;;;8.77;6.30;;;16.10;99.90;;;;;;5034440;28;20077;-77
2023/07/23 10:03:51;;;;;;;10.65;6.45;;;16.10;99.90;;;;;;5035053;28;20072;-77
2023/07/23 10:06:20;;;;;;;9.10;6.20;;;16.20;99.90;;;;;;5017606;28;20521;-76
2023/07/23 10:08:48;;;;;;;8.23;6.00;;;16.10;99.90;;;;;;5034008;28;20050;-76
2023/07/23 10:11:14;;;;;;;9.48;6.32;;;16.10;99.90;;;;;;5033452;28;20174;-76
2023/07/23 10:13:42;;;;;;;8.55;5.75;;;16.10;99.90;;;;;;5034209;28;20045;-76
2023/07/23 10:16:17;;;;;;;9.43;5.75;;;16.10;99.90;;;;;;5034228;28;20037;-76
2023/07/23 10:18:44;;;;;;;9.38;5.82;;;16.20;99.90;;;;;;5033851;28;20053;-77
2023/07/23 10:21:10;;;;;;;7.50;5.65;;;16.20;99.90;;;;;;5017416;28;20056;-77
2023/07/23 10:23:38;;;;;;;9.07;6.03;;;16.20;99.90;;;;;;5033760;28;20073;-77
2023/07/23 10:26:20;;;;;;;7.72;5.85;;;16.20;99.90;;;;;;5034097;28;20077;-77
2023/07/23 10:28:48;;;;;;;7.82;5.40;;;16.10;99.90;;;;;;5033931;28;20064;-77
2023/07/23 10:31:28;;;;;;;8.30;5.43;;;16.10;99.90;;;;;;5033756;28;20044;-78
2023/07/23 10:33:53;;;;;;;8.23;6.10;;;16.20;99.90;;;;;;5033713;28;20124;-77
2023/07/23 10:36:22;;;;;;;7.18;5.50;;;16.20;99.90;;;;;;5033560;28;20120;-77
2023/07/23 10:39:05;;;;;;;8.65;6.00;;;16.20;99.90;;;;;;5017208;28;20056;-77
2023/07/23 10:41:55;;;;;;;7.63;6.05;;;16.20;99.90;;;;;;5033579;28;20091;-77
2023/07/23 10:44:28;;;;;;;10.07;5.63;;;16.20;99.90;;;;;;5016989;28;20516;-77
2023/07/23 10:46:59;;;;;;;7.18;5.22;;;16.30;99.90;;;;;;5033383;28;20037;-77
2023/07/23 10:49:29;;;;;;;7.93;5.75;;;16.20;99.90;;;;;;5033240;28;20509;-77
2023/07/23 10:52:16;;;;;;;9.35;5.78;;;16.30;99.90;;;;;;5033309;28;20040;-77
2023/07/23 10:54:42;;;;;;;11.10;6.68;;;16.30;99.90;;;;;;5016755;28;20406;-78
2023/07/23 10:57:08;;;;;;;6.95;5.85;;;16.30;99.90;;;;;;5033117;28;20049;-78
2023/07/23 10:59:38;;;;;;;8.02;6.50;;;16.30;99.90;;;;;;5033042;28;20045;-77
2023/07/23 11:02:05;;;;;;;7.78;5.68;;;16.40;99.90;;;;;;5033093;28;20052;-77
2023/07/23 11:04:36;;;;;;;8.80;5.97;;;16.30;99.90;;;;;;5016507;28;20047;-77
2023/07/23 11:07:06;;;;;;;9.32;6.05;;;16.30;99.90;;;;;;5033009;28;20037;-77
2023/07/23 11:09:37;;;;;;;8.80;6.03;;;16.30;99.90;;;;;;5032951;28;20049;-78
2023/07/23 11:12:05;;;;;;;8.93;6.20;;;16.40;99.90;;;;;;5016664;28;20036;-77
2023/07/23 11:14:31;;;;;;;9.68;6.50;;;16.40;99.90;;;;;;5016413;28;20513;-77
2023/07/23 11:16:59;;;;;;;8.57;5.95;;;16.30;99.90;;;;;;5033053;28;20041;-77
2023/07/23 11:19:27;;;;;;;8.65;6.38;;;16.30;99.90;;;;;;5032669;28;20041;-78
2023/07/23 11:21:56;;;;;;;9.95;6.43;;;16.40;99.90;;;;;;5032624;28;20134;-78
2023/07/23 11:24:27;;;;;;;10.70;6.05;;;16.30;99.90;;;;;;5015411;28;20048;-78
2023/07/23 11:26:56;;;;;;;10.27;6.65;;;16.40;99.90;;;;;;5032647;28;20033;-78
2023/07/23 11:29:24;;;;;;;9.30;6.32;;;16.40;99.90;;;;;;5016282;28;20033;-78
2023/07/23 11:31:51;;;;;;;10.27;7.28;;;16.40;99.90;;;;;;5016072;28;20047;-78
2023/07/23 11:34:17;;;;;;;11.32;6.85;;;16.40;99.90;;;;;;5032481;28;20056;-77
2023/07/23 11:36:42;;;;;;;9.50;6.75;;;16.50;99.90;;;;;;5032455;28;20048;-77
2023/07/23 11:39:09;;;;;;;8.85;6.80;;;16.40;99.90;;;;;;5032311;28;20037;-77
2023/07/23 11:41:41;;;;;;;10.30;6.85;;;16.40;99.90;;;;;;5032373;28;20120;-77
2023/07/23 11:44:08;;;;;;;8.90;6.32;;;16.40;99.90;;;;;;5032267;28;20037;-77
2023/07/23 11:46:39;;;;;;;9.07;6.68;;;16.40;99.90;;;;;;5016063;28;20486;-77
2023/07/23 11:49:06;;;;;;;11.65;6.68;;;16.50;99.90;;;;;;5015883;28;20494;-77
2023/07/23 11:51:33;;;;;;;12.20;7.35;;;16.60;99.90;;;;;;5015819;28;20068;-77
2023/07/23 11:54:00;;;;;;;11.52;7.32;;;16.50;99.90;;;;;;5032409;28;20056;-77
2023/07/23 11:56:26;;;;;;;9.63;7.25;;;16.50;99.90;;;;;;5032179;28;20124;-77
2023/07/23 11:58:52;;;;;;;8.77;6.25;;;16.50;99.90;;;;;;5032064;28;20129;-77
2023/07/23 12:01:17;;;;;;;9.88;6.65;;;16.50;99.90;;;;;;5015613;28;20038;-77
2023/07/23 12:03:45;;;;;;;8.40;6.03;;;16.60;99.90;;;;;;5031948;28;20037;-77
2023/07/23 12:06:15;;;;;;;8.13;6.15;;;16.60;99.90;;;;;;5015807;28;20040;-77
2023/07/23 12:08:45;;;;;;;7.70;5.90;;;16.50;99.90;;;;;;5031931;28;20034;-77
2023/07/23 12:11:13;;;;;;;7.78;5.78;;;16.70;99.90;;;;;;5031899;28;20494;-77
2023/07/23 12:13:50;;;;;;;9.70;6.05;;;16.60;99.90;;;;;;5031976;28;20047;-77
2023/07/23 12:16:36;;;;;;;8.73;5.70;;;16.70;99.90;;;;;;5031973;28;20033;-77
2023/07/23 12:19:16;;;;;;;7.57;5.80;;;16.80;99.90;;;;;;5031852;28;20052;-77
2023/07/23 12:21:43;;;;;;;8.68;5.68;;;16.70;99.90;;;;;;5031849;28;20041;-77
2023/07/23 12:24:12;;;;;;;11.05;6.25;;;16.80;99.90;;;;;;5031754;28;20045;-77
2023/07/23 12:26:38;;;;;;;7.90;5.47;;;17.10;99.90;;;;;;5031837;28;20041;-77
2023/07/23 12:29:06;;;;;;;7.32;5.68;;;17.20;99.90;;;;;;5015616;28;20042;-77
2023/07/23 12:31:38;;;;;;;7.95;5.50;;;17.30;99.90;;;;;;5015341;28;20069;-77
2023/07/23 12:34:03;;;;;;;9.48;5.93;;;17.30;99.90;;;;;;5032499;28;20048;-77
2023/07/23 12:36:29;;;;;;;6.50;5.55;;;17.40;99.90;;;;;;5036105;28;20038;-77